Time;durP1;ratioP1;P1;durP2;ratioP2;P2;SDS_P1;SDS_P2;PMS_P1;PMS_P2;Temp;Humidity;BMP_temperature;BMP_pressure;BME280_temperature;BME280_humidity;BME280_pressure;Samples;Min_cycle;Max_cycle;Signal;HPM_P1;HPM_P2
2021/11/02 00:02:10;;;;;;;;;4.00;2.00;;;;;18.21;100.00;99575.03;5044890;28;45352;-81
2021/11/02 00:04:36;;;;;;;;;2.00;2.00;;;;;18.10;100.00;99586.19;5023346;28;45582;-80
2021/11/02 00:07:03;;;;;;;;;4.00;2.00;;;;;18.15;100.00;99581.13;5060007;28;46129;-80
2021/11/02 00:09:31;;;;;;;;;1.75;1.25;;;;;18.22;100.00;99578.53;5061341;28;45324;-81
2021/11/02 00:11:57;;;;;;;;;2.00;2.00;;;;;18.25;100.00;99575.53;5059846;28;45663;-83
2021/11/02 00:14:26;;;;;;;;;1.00;1.00;;;;;18.08;100.00;99580.19;5039589;28;45418;-84
2021/11/02 00:16:58;;;;;;;;;1.25;1.00;;;;;18.14;100.00;99574.09;5059034;28;47499;-83
2021/11/02 00:19:26;;;;;;;;;3.50;2.00;;;;;18.04;100.00;99575.38;5061237;28;45497;-82
2021/11/02 00:21:55;;;;;;;;;1.00;1.00;;;;;18.09;100.00;99565.81;5060830;28;45407;-81
2021/11/02 00:27:01;;;;;;;;;3.00;2.00;;;;;18.03;100.00;99560.38;5062358;28;45388;-83
2021/11/02 00:29:26;;;;;;;;;2.50;1.00;;;;;18.17;100.00;99565.75;5064592;28;45215;-81
2021/11/02 00:31:52;;;;;;;;;3.00;1.00;;;;;18.15;100.00;99567.75;5047595;28;45615;-78
2021/11/02 00:34:17;;;;;;;;;1.00;1.00;;;;;18.10;100.00;99563.97;5031862;28;45505;-81
2021/11/02 00:36:43;;;;;;;;;1.00;1.00;;;;;18.17;100.00;99563.06;5055952;28;46318;-81
2021/11/02 00:39:08;;;;;;;;;1.00;1.00;;;;;18.03;100.00;99561.19;5042307;28;46151;-80
2021/11/02 00:41:34;;;;;;;;;3.25;1.00;;;;;17.97;100.00;99550.38;5061076;28;45328;-80
2021/11/02 00:43:59;;;;;;;;;2.25;1.00;;;;;17.93;100.00;99556.09;5060082;28;45614;-80
2021/11/02 00:46:33;;;;;;;;;3.00;1.00;;;;;18.09;100.00;99540.94;5042411;28;47162;-80
2021/11/02 00:48:59;;;;;;;;;3.25;1.00;;;;;18.05;100.00;99537.78;5061652;28;45470;-80
2021/11/02 00:51:26;;;;;;;;;3.25;0.75;;;;;18.12;100.00;99540.59;5057986;28;45351;-79
2021/11/02 00:53:51;;;;;;;;;0.50;0.00;;;;;17.95;100.00;99550.56;5051475;28;45420;-80
2021/11/02 00:56:17;;;;;;;;;3.00;1.00;;;;;17.87;100.00;99532.78;5052202;28;45565;-80
2021/11/02 00:58:45;;;;;;;;;1.00;1.00;;;;;18.03;100.00;99539.81;5057714;28;45447;-80
2021/11/02 01:01:11;;;;;;;;;2.25;1.00;;;;;18.06;100.00;99523.44;5056539;28;45469;-80
2021/11/02 01:03:37;;;;;;;;;0.00;0.00;;;;;17.90;100.00;99528.91;5055715;28;45349;-80
2021/11/02 01:06:04;;;;;;;;;0.25;0.25;;;;;17.95;100.00;99518.50;5031957;28;47227;-80
2021/11/02 01:08:30;;;;;;;;;0.00;0.00;;;;;17.86;100.00;99517.75;5037275;28;45691;-80
2021/11/02 01:10:55;;;;;;;;;0.50;0.50;;;;;17.87;100.00;99521.25;5052344;28;45336;-80
2021/11/02 01:13:21;;;;;;;;;1.75;0.25;;;;;17.91;100.00;99531.41;5041769;28;45438;-79
2021/11/02 01:15:46;;;;;;;;;2.00;1.00;;;;;17.87;100.00;99522.09;5049766;28;46019;-79
2021/11/02 01:18:12;;;;;;;;;0.00;0.00;;;;;17.90;100.00;99523.56;5039930;28;45373;-80
2021/11/02 01:20:38;;;;;;;;;1.25;0.00;;;;;17.81;100.00;99532.66;5039380;28;45323;-80
2021/11/02 01:23:04;;;;;;;;;1.75;0.75;;;;;17.74;100.00;99521.88;5056353;28;45267;-80
2021/11/02 01:25:29;;;;;;;;;2.00;0.00;;;;;17.82;100.00;99532.50;5059991;28;45903;-80
2021/11/02 01:27:55;;;;;;;;;1.00;0.75;;;;;17.79;100.00;99524.00;5057264;28;45296;-80
2021/11/02 01:30:20;;;;;;;;;1.75;0.75;;;;;17.73;100.00;99524.72;5041430;28;45250;-79
2021/11/02 01:32:46;;;;;;;;;0.00;0.00;;;;;17.72;100.00;99523.88;5053559;28;45269;-80
2021/11/02 01:35:12;;;;;;;;;2.00;1.00;;;;;17.55;100.00;99515.16;5028286;28;46033;-79
2021/11/02 01:37:39;;;;;;;;;2.00;0.00;;;;;17.44;100.00;99531.56;5061464;28;45825;-79
2021/11/02 01:40:07;;;;;;;;;2.00;1.00;;;;;17.36;100.00;99523.63;5059756;28;45275;-80
2021/11/02 01:42:33;;;;;;;;;1.00;1.00;;;;;17.32;100.00;99526.81;5059855;28;45485;-79
2021/11/02 01:44:59;;;;;;;;;1.00;0.00;;;;;17.52;100.00;99517.34;5035194;28;47211;-80
2021/11/02 01:47:25;;;;;;;;;2.75;0.75;;;;;17.53;100.00;99514.50;5048682;28;45861;-78
2021/11/02 01:49:51;;;;;;;;;0.75;0.75;;;;;17.41;100.00;99509.72;5051810;28;44785;-79
2021/11/02 01:52:16;;;;;;;;;4.00;1.00;;;;;17.41;100.00;99520.41;5067478;28;45265;-79
2021/11/02 01:54:42;;;;;;;;;4.25;0.00;;;;;17.42;100.00;99520.22;5059324;28;46196;-79
2021/11/02 01:57:08;;;;;;;;;3.00;0.75;;;;;17.54;100.00;99521.50;5038966;28;45406;-79
2021/11/02 01:59:35;;;;;;;;;0.25;0.25;;;;;17.55;100.00;99517.81;5059122;28;45344;-79
2021/11/02 02:02:07;;;;;;;;;1.75;0.75;;;;;17.64;100.00;99523.97;5032436;28;46085;-79
2021/11/02 02:05:00;;;;;;;;;1.50;0.00;;;;;17.69;100.00;99528.75;5042463;28;45241;-79
2021/11/02 02:07:34;;;;;;;;;2.00;0.00;;;;;17.77;100.00;99531.34;5043869;28;45301;-79
2021/11/02 02:10:08;;;;;;;;;1.00;1.00;;;;;17.86;100.00;99528.44;5051978;28;45245;-79
2021/11/02 02:12:35;;;;;;;;;1.75;1.00;;;;;17.81;100.00;99528.16;5057589;28;45501;-79
2021/11/02 02:15:09;;;;;;;;;1.75;1.00;;;;;17.76;100.00;99524.34;5055325;28;45516;-80
2021/11/02 02:17:42;;;;;;;;;3.25;0.75;;;;;17.80;100.00;99520.31;5042569;28;45263;-80
2021/11/02 02:20:14;;;;;;;;;1.00;1.00;;;;;17.81;100.00;99528.16;5058286;28;45458;-80
2021/11/02 02:23:04;;;;;;;;;3.00;0.00;;;;;17.91;100.00;99527.91;5061717;28;45445;-79
2021/11/02 02:25:49;;;;;;;;;0.75;0.75;;;;;17.93;100.00;99532.06;5052903;28;45182;-79
2021/11/02 02:28:32;;;;;;;;;0.50;0.50;;;;;17.99;100.00;99513.66;5042851;28;45361;-79
2021/11/02 02:31:05;;;;;;;;;3.25;1.00;;;;;18.02;100.00;99523.97;5052326;28;45266;-79
2021/11/02 02:33:36;;;;;;;;;1.00;1.00;;;;;18.13;100.00;99528.88;5038912;28;45871;-80
2021/11/02 02:36:03;;;;;;;;;2.00;1.00;;;;;17.99;100.00;99525.16;5043947;28;45527;-79
2021/11/02 02:38:31;;;;;;;;;0.50;0.50;;;;;18.03;100.00;99520.31;5043965;28;45452;-80
2021/11/02 02:40:59;;;;;;;;;1.50;1.00;;;;;18.01;100.00;99516.97;5032727;28;45520;-80
2021/11/02 02:43:26;;;;;;;;;2.25;2.00;;;;;18.09;100.00;99516.91;5038085;28;45577;-79
2021/11/02 02:45:53;;;;;;;;;2.75;0.50;;;;;18.13;100.00;99516.34;5059844;28;45289;-79
2021/11/02 02:48:20;;;;;;;;;1.00;1.00;;;;;18.20;100.00;99511.94;5044050;28;45613;-80
2021/11/02 02:50:48;;;;;;;;;4.50;1.00;;;;;18.22;100.00;99515.25;5059495;28;45451;-80
2021/11/02 02:53:14;;;;;;;;;3.00;1.00;;;;;18.42;100.00;99512.03;5025092;28;45800;-79
2021/11/02 02:55:43;;;;;;;;;1.00;0.50;;;;;18.41;100.00;99515.72;5055196;28;45439;-79
2021/11/02 02:58:11;;;;;;;;;2.75;0.50;;;;;18.49;100.00;99510.28;5061873;28;45729;-79
2021/11/02 03:00:37;;;;;;;;;2.00;0.00;;;;;18.48;100.00;99497.97;5054897;28;45343;-80
2021/11/02 03:03:04;;;;;;;;;2.00;0.00;;;;;18.53;100.00;99493.69;5062223;28;45519;-79
2021/11/02 03:05:32;;;;;;;;;2.00;0.00;;;;;18.68;100.00;99494.53;5047690;28;45281;-80
2021/11/02 03:07:58;;;;;;;;;0.00;0.00;;;;;18.46;100.00;99494.63;5025377;28;45237;-79
2021/11/02 03:10:24;;;;;;;;;3.00;2.00;;;;;18.45;100.00;99499.16;5032242;28;45431;-80
2021/11/02 03:12:52;;;;;;;;;1.25;1.00;;;;;18.44;100.00;99491.31;5059534;28;45395;-79
2021/11/02 03:48:20;;;;;;;;;1.75;1.00;;;;;18.38;100.00;99508.09;5053654;28;45224;-79
2021/11/02 04:02:07;;;;;;;;;1.75;0.25;;;;;18.18;100.00;99497.94;5056751;28;45741;-79
2021/11/02 05:06:53;;;;;;;;;3.50;0.00;;;;;17.71;100.00;99508.88;5035936;28;45480;-79
2021/11/02 05:58:43;;;;;;;;;1.00;1.00;;;;;17.45;100.00;99538.56;5049544;28;45662;-80
2021/11/02 06:01:24;;;;;;;;;4.00;1.00;;;;;16.92;100.00;99534.03;5056671;28;45729;-79
2021/11/02 06:28:43;;;;;;;;;1.00;0.00;;;;;17.03;100.00;99551.47;5064165;28;45481;-79
2021/11/02 06:31:14;;;;;;;;;1.00;1.00;;;;;17.24;100.00;99546.38;5046557;28;45241;-80
2021/11/02 06:50:20;;;;;;;;;0.25;0.25;;;;;17.35;100.00;99555.81;5060214;28;45435;-78
2021/11/02 06:56:19;;;;;;;;;1.00;1.00;;;;;17.36;100.00;99574.31;5055613;28;45213;-79
2021/11/02 07:16:31;;;;;;;;;1.00;1.00;;;;;17.37;100.00;99593.84;5051893;28;45852;-78
2021/11/02 07:19:08;;;;;;;;;0.00;0.00;;;;;17.43;100.00;99596.63;5049219;28;45342;-79
2021/11/02 07:24:14;;;;;;;;;1.00;1.00;;;;;17.39;100.00;99602.50;5042003;28;45232;-79
2021/11/02 08:45:08;;;;;;;;;1.00;1.00;;;;;19.24;93.79;99658.06;5063566;28;45391;-81
2021/11/02 08:47:38;;;;;;;;;3.25;1.75;;;;;19.49;92.81;99655.13;5060258;28;45352;-81
2021/11/02 08:50:07;;;;;;;;;2.25;1.00;;;;;19.43;92.27;99659.34;5042706;28;45457;-81
2021/11/02 08:52:34;;;;;;;;;4.75;2.00;;;;;19.30;93.38;99657.31;5060662;28;45421;-81
2021/11/02 08:55:00;;;;;;;;;4.00;1.00;;;;;19.36;92.92;99659.28;5042331;28;48044;-81
2021/11/02 08:57:27;;;;;;;;;2.25;2.00;;;;;19.33;92.30;99664.16;5070911;28;45525;-81
2021/11/02 08:59:54;;;;;;;;;1.50;1.00;;;;;19.32;92.35;99665.16;5042297;28;45332;-81
2021/11/02 09:02:33;;;;;;;;;1.75;1.00;;;;;19.47;92.86;99671.34;5060203;28;45367;-80
2021/11/02 09:05:14;;;;;;;;;4.00;1.75;;;;;19.54;92.12;99664.25;5059542;28;45426;-81
2021/11/02 09:07:44;;;;;;;;;1.00;1.00;;;;;19.73;91.18;99666.34;5063590;28;45322;-80
2021/11/02 09:10:13;;;;;;;;;3.00;1.25;;;;;20.09;91.05;99669.00;5044386;28;45431;-80
2021/11/02 09:12:42;;;;;;;;;3.00;1.00;;;;;20.26;88.90;99658.03;5041379;28;45568;-81
2021/11/02 09:15:09;;;;;;;;;3.25;2.25;;;;;20.26;86.48;99661.53;5059937;28;46154;-81
2021/11/02 09:17:47;;;;;;;;;2.50;2.00;;;;;20.43;86.21;99662.13;5059746;28;45306;-81
2021/11/02 09:20:15;;;;;;;;;0.25;0.25;;;;;20.57;88.45;99658.53;5049079;28;45298;-80
2021/11/02 09:22:41;;;;;;;;;1.00;1.00;;;;;21.14;82.87;99657.47;5059931;28;45537;-81
2021/11/02 09:25:09;;;;;;;;;4.00;1.00;;;;;22.15;80.09;99653.13;5059872;28;45613;-81
2021/11/02 09:27:36;;;;;;;;;1.50;0.00;;;;;22.72;75.87;99649.84;5063907;28;45212;-81
2021/11/02 09:30:04;;;;;;;;;3.25;0.00;;;;;22.39;75.23;99664.13;5060240;28;45310;-80
2021/11/02 09:32:29;;;;;;;;;4.00;0.75;;;;;22.22;75.83;99662.03;5059902;28;45387;-81
2021/11/02 09:34:55;;;;;;;;;1.00;1.00;;;;;22.25;76.33;99659.75;5059942;28;46033;-81
2021/11/02 09:37:30;;;;;;;;;1.00;1.00;;;;;22.58;78.45;99664.34;5059894;28;45390;-81
2021/11/02 09:40:26;;;;;;;;;1.50;1.50;;;;;22.74;73.26;99659.41;5060278;28;45325;-81
2021/11/02 09:43:03;;;;;;;;;3.00;1.50;;;;;22.87;75.46;99663.09;5041563;28;45416;-81
2021/11/02 09:45:40;;;;;;;;;2.25;1.50;;;;;22.95;72.76;99657.47;5072196;28;45384;-81
2021/11/02 09:48:27;;;;;;;;;5.00;2.00;;;;;22.87;70.13;99663.09;5060299;28;45361;-81
2021/11/02 09:51:10;;;;;;;;;1.00;1.00;;;;;22.97;71.14;99661.63;5060237;28;45256;-81
2021/11/02 09:53:56;;;;;;;;;2.50;2.25;;;;;23.16;70.13;99664.50;5058834;28;46695;-81
2021/11/02 09:56:42;;;;;;;;;4.75;2.00;;;;;23.27;68.78;99664.69;5064255;28;45607;-81
2021/11/02 09:59:42;;;;;;;;;3.00;2.00;;;;;23.93;68.09;99663.59;5059546;28;45283;-81
2021/11/02 10:02:38;;;;;;;;;2.00;0.00;;;;;23.97;66.29;99670.19;5059875;28;45305;-81
2021/11/02 10:05:54;;;;;;;;;0.50;0.50;;;;;24.37;64.09;99668.94;5059865;28;45308;-81
2021/11/02 10:08:46;;;;;;;;;5.50;1.25;;;;;24.63;62.28;99667.06;4997011;28;46338;-82
2021/11/02 10:11:14;;;;;;;;;2.00;2.00;;;;;24.85;62.96;99673.72;4997332;28;45396;-81
2021/11/02 10:14:28;;;;;;;;;0.75;0.75;;;;;24.83;59.22;99670.41;5012924;28;45229;-81
2021/11/02 10:17:24;;;;;;;;;0.00;0.00;;;;;24.50;60.55;99685.00;5034485;28;45221;-81
2021/11/02 10:20:05;;;;;;;;;3.00;0.00;;;;;24.39;59.44;99683.03;5035444;28;45288;-81
2021/11/02 10:23:01;;;;;;;;;2.25;0.00;;;;;24.28;59.45;99688.31;5061253;28;45323;-81
2021/11/02 10:25:53;;;;;;;;;2.00;0.00;;;;;24.06;60.81;99679.69;5065225;28;45357;-82
2021/11/02 10:28:34;;;;;;;;;2.75;1.00;;;;;24.13;61.49;99692.09;5069278;28;45608;-81
2021/11/02 10:31:10;;;;;;;;;3.75;1.00;;;;;24.21;61.18;99689.19;5042380;28;46381;-81
2021/11/02 10:33:42;;;;;;;;;1.00;1.00;;;;;24.22;62.17;99692.69;5052880;28;45365;-81
2021/11/02 10:36:18;;;;;;;;;1.75;1.75;;;;;24.55;60.93;99698.69;5058588;28;45386;-81
2021/11/02 10:39:11;;;;;;;;;1.00;1.00;;;;;24.76;60.84;99702.91;5042649;28;45301;-81
2021/11/02 10:41:44;;;;;;;;;2.00;2.00;;;;;24.79;60.54;99701.59;5051793;28;45453;-81
2021/11/02 10:44:25;;;;;;;;;1.75;1.00;;;;;24.43;60.80;99699.59;5060666;28;45699;-81
2021/11/02 10:47:02;;;;;;;;;1.50;1.00;;;;;23.97;60.55;99699.88;5064703;28;45379;-81
2021/11/02 10:49:37;;;;;;;;;1.00;1.00;;;;;23.52;62.34;99699.03;5062406;28;45310;-80
2021/11/02 10:52:08;;;;;;;;;1.00;1.00;;;;;23.09;62.79;99713.81;5062058;28;46321;-80
2021/11/02 10:54:36;;;;;;;;;3.75;1.50;;;;;22.98;63.82;99701.00;5063102;28;45530;-80
2021/11/02 10:57:35;;;;;;;;;3.00;2.00;;;;;23.05;64.74;99695.59;5044219;28;45293;-81
2021/11/02 11:00:11;;;;;;;;;3.00;1.00;;;;;23.27;66.02;99688.91;5062726;28;45380;-81
2021/11/02 11:02:37;;;;;;;;;0.50;0.50;;;;;23.50;64.27;99704.63;5052126;28;45439;-80
2021/11/02 11:05:07;;;;;;;;;2.00;1.75;;;;;23.40;63.47;99701.50;5047357;28;46019;-80
2021/11/02 11:07:38;;;;;;;;;1.00;1.00;;;;;23.86;63.08;99688.72;5062634;28;45320;-79
2021/11/02 11:10:06;;;;;;;;;2.75;1.75;;;;;24.06;63.03;99685.09;5063642;28;45466;-79
2021/11/02 11:13:00;;;;;;;;;1.00;1.00;;;;;24.34;62.21;99693.66;5064424;28;45611;-80
2021/11/02 11:15:35;;;;;;;;;3.00;1.00;;;;;24.34;64.14;99682.84;5042134;28;45940;-80
2021/11/02 11:18:04;;;;;;;;;3.50;1.75;;;;;24.48;62.67;99687.13;5027100;28;45309;-80
2021/11/02 11:20:32;;;;;;;;;5.00;3.00;;;;;24.75;60.73;99684.22;5055061;28;45387;-80
2021/11/02 11:22:58;;;;;;;;;2.00;2.00;;;;;24.87;61.73;99677.00;5023884;28;48206;-80
2021/11/02 11:25:28;;;;;;;;;0.75;0.75;;;;;24.95;59.68;99672.19;5024223;28;45620;-81
2021/11/02 11:27:56;;;;;;;;;2.00;1.00;;;;;24.87;58.46;99675.13;5056791;28;45475;-80
2021/11/02 11:30:26;;;;;;;;;2.25;0.75;;;;;24.51;58.92;99683.97;5062052;28;45462;-81
2021/11/02 11:32:52;;;;;;;;;0.75;0.75;;;;;24.28;60.40;99681.03;5061716;28;46376;-81
2021/11/02 11:35:18;;;;;;;;;0.75;0.75;;;;;24.28;59.10;99664.84;5061993;28;45174;-80
2021/11/02 11:37:47;;;;;;;;;2.75;0.75;;;;;24.25;59.98;99662.56;5060811;28;45431;-81
2021/11/02 11:40:16;;;;;;;;;4.50;1.50;;;;;24.42;60.05;99670.97;5063387;28;45466;-79
2021/11/02 11:42:47;;;;;;;;;1.75;1.75;;;;;24.79;59.12;99653.00;5045600;28;46159;-79
2021/11/02 11:45:23;;;;;;;;;1.00;0.75;;;;;24.80;57.44;99670.84;5055226;28;45603;-79
2021/11/02 11:48:08;;;;;;;;;3.50;2.75;;;;;24.95;58.01;99663.25;5069130;28;45245;-79
2021/11/02 11:50:36;;;;;;;;;0.00;0.00;;;;;24.75;55.67;99660.72;5061435;28;45233;-82
2021/11/02 11:53:03;;;;;;;;;3.25;1.00;;;;;24.44;55.81;99655.38;5059459;28;45324;-81
2021/11/02 11:55:32;;;;;;;;;1.25;0.50;;;;;24.02;57.12;99662.31;5041322;28;45336;-81
2021/11/02 11:58:08;;;;;;;;;1.00;1.00;;;;;23.66;57.89;99657.53;5057493;28;45450;-82
2021/11/02 12:00:36;;;;;;;;;2.50;2.50;;;;;23.63;59.63;99656.06;5061899;28;45397;-81
2021/11/02 12:03:23;;;;;;;;;3.00;3.00;;;;;23.26;59.82;99656.81;5061379;28;45429;-81
2021/11/02 12:06:01;;;;;;;;;5.50;1.75;;;;;23.11;59.94;99654.38;5058439;28;44866;-82
2021/11/02 12:08:56;;;;;;;;;3.00;3.00;;;;;23.11;60.38;99660.59;5062631;28;44797;-82
2021/11/02 12:11:23;;;;;;;;;1.00;1.00;;;;;23.00;60.55;99660.41;5068091;28;45405;-80
2021/11/02 12:13:54;;;;;;;;;5.00;3.00;;;;;23.21;59.97;99651.25;5061831;28;45381;-81
2021/11/02 12:16:27;;;;;;;;;1.00;1.00;;;;;23.24;61.07;99643.53;5061985;28;45341;-80
2021/11/02 12:19:01;;;;;;;;;1.00;1.00;;;;;22.98;60.76;99644.44;5028966;28;45343;-80
2021/11/02 12:21:30;;;;;;;;;1.00;1.00;;;;;22.89;61.88;99648.41;5064979;28;45250;-80
2021/11/02 12:24:03;;;;;;;;;3.00;1.75;;;;;22.75;61.40;99657.53;5043371;28;47144;-80
2021/11/02 12:26:55;;;;;;;;;3.00;3.00;;;;;22.63;62.33;99651.91;5061035;28;45473;-81
2021/11/02 12:29:27;;;;;;;;;3.75;2.00;;;;;22.39;63.01;99639.94;5052718;28;45633;-80
2021/11/02 12:31:55;;;;;;;;;3.00;1.25;;;;;22.87;63.65;99637.00;5043152;28;45457;-81
2021/11/02 12:34:23;;;;;;;;;2.75;2.75;;;;;23.33;61.76;99644.13;5060661;28;45284;-80
2021/11/02 12:36:50;;;;;;;;;5.75;4.75;;;;;23.35;61.32;99639.38;5061063;28;45398;-80
2021/11/02 12:39:20;;;;;;;;;3.50;3.50;;;;;23.21;60.79;99633.22;5042786;28;45431;-80
2021/11/02 12:41:53;;;;;;;;;4.75;2.50;;;;;23.48;60.73;99625.84;5060634;28;45229;-80
2021/11/02 12:44:24;;;;;;;;;4.75;4.00;;;;;23.94;60.29;99633.72;5060773;28;45438;-80
2021/11/02 12:46:50;;;;;;;;;14.75;10.50;;;;;24.10;58.68;99630.50;5048349;28;45514;-80
2021/11/02 12:49:23;;;;;;;;;4.75;3.00;;;;;24.36;59.22;99621.41;5058411;28;45449;-81
2021/11/02 12:51:53;;;;;;;;;4.00;2.00;;;;;24.41;56.89;99626.97;5060910;28;45409;-80
2021/11/02 12:54:21;;;;;;;;;3.00;0.25;;;;;24.43;57.06;99613.25;5042479;28;46880;-81
2021/11/02 12:57:08;;;;;;;;;1.25;1.25;;;;;24.32;56.92;99613.94;5055972;28;45303;-81
2021/11/02 12:59:40;;;;;;;;;3.00;2.00;;;;;24.11;58.00;99604.34;5064046;28;45257;-80
2021/11/02 13:02:34;;;;;;;;;3.25;2.75;;;;;24.07;57.63;99612.03;5043201;28;45403;-81
2021/11/02 13:05:13;;;;;;;;;4.75;3.00;;;;;23.87;57.15;99614.03;5060501;28;45449;-80
2021/11/02 13:07:40;;;;;;;;;2.00;0.75;;;;;23.36;56.92;99622.16;5060636;28;45396;-81
2021/11/02 13:10:15;;;;;;;;;5.25;2.25;;;;;23.18;57.73;99617.47;5060519;28;45328;-81
2021/11/02 13:12:43;;;;;;;;;3.00;3.00;;;;;23.17;58.49;99609.59;5046103;28;45478;-80
2021/11/02 13:15:11;;;;;;;;;2.00;2.00;;;;;23.10;58.63;99604.22;5040390;28;47136;-80
2021/11/02 13:17:44;;;;;;;;;1.00;1.00;;;;;23.19;57.95;99597.56;5022235;28;45214;-81
2021/11/02 13:20:12;;;;;;;;;1.00;1.00;;;;;23.28;58.71;99606.25;5022196;28;45372;-81
2021/11/02 13:22:48;;;;;;;;;5.50;5.00;;;;;23.92;58.82;99602.63;5040349;28;45250;-81
2021/11/02 13:25:18;;;;;;;;;2.00;1.00;;;;;24.14;56.47;99602.03;5029694;28;47486;-80
2021/11/02 13:27:46;;;;;;;;;4.00;3.25;;;;;24.24;55.80;99598.88;5065641;28;45332;-80
2021/11/02 13:30:30;;;;;;;;;7.25;3.00;;;;;23.71;55.25;99614.56;5060360;28;45391;-81
2021/11/02 13:33:03;;;;;;;;;6.50;3.50;;;;;23.38;55.84;99612.00;5041982;28;45272;-81
2021/11/02 13:35:41;;;;;;;;;3.00;3.00;;;;;23.22;57.15;99607.09;5042827;28;47237;-80
2021/11/02 13:38:21;;;;;;;;;2.00;1.00;;;;;23.61;57.10;99601.53;5063539;28;45422;-80
2021/11/02 13:40:46;;;;;;;;;5.00;2.25;;;;;23.56;56.90;99593.28;5061399;28;45404;-80
2021/11/02 13:43:33;;;;;;;;;1.25;1.00;;;;;23.58;57.33;99585.78;5041785;28;45397;-80
2021/11/02 13:46:00;;;;;;;;;0.25;0.25;;;;;23.40;55.65;99577.56;5059855;28;45365;-80
2021/11/02 13:48:27;;;;;;;;;1.75;1.00;;;;;23.54;56.22;99578.38;5069201;28;45166;-80
2021/11/02 13:50:54;;;;;;;;;2.75;2.50;;;;;23.48;55.41;99575.47;5029878;28;45312;-80
2021/11/02 13:53:21;;;;;;;;;2.50;1.00;;;;;23.58;55.85;99583.09;5039609;28;45371;-80
2021/11/02 13:55:47;;;;;;;;;0.50;0.50;;;;;23.55;56.01;99580.84;5021786;28;47260;-80
2021/11/02 13:58:12;;;;;;;;;4.00;1.50;;;;;23.55;55.60;99580.84;5058436;28;45390;-80
2021/11/02 14:00:39;;;;;;;;;1.50;1.50;;;;;23.59;55.24;99587.44;5044146;28;45391;-80
2021/11/02 14:03:10;;;;;;;;;4.50;2.00;;;;;23.49;56.09;99570.91;5063185;28;45315;-80
2021/11/02 14:05:38;;;;;;;;;2.75;1.00;;;;;22.90;56.69;99577.38;5045122;28;47688;-80
2021/11/02 14:08:06;;;;;;;;;2.00;0.75;;;;;22.64;57.41;99597.06;5063543;28;45459;-80
2021/11/02 14:10:32;;;;;;;;;2.25;0.00;;;;;22.26;58.28;99588.81;5063415;28;45219;-80
2021/11/02 14:12:57;;;;;;;;;0.00;0.00;;;;;22.00;59.13;99589.63;5069746;28;45307;-80
2021/11/02 14:15:30;;;;;;;;;2.50;1.00;;;;;21.92;59.90;99584.41;5072181;28;45669;-80
2021/11/02 14:18:00;;;;;;;;;1.25;1.00;;;;;22.24;60.14;99581.97;5063813;28;45453;-80
2021/11/02 14:20:40;;;;;;;;;2.00;2.00;;;;;22.31;60.65;99580.94;5063169;28;45415;-80
2021/11/02 14:23:39;;;;;;;;;2.00;2.00;;;;;22.34;61.00;99571.63;5062936;28;45542;-80
2021/11/02 14:26:23;;;;;;;;;3.25;2.00;;;;;22.64;60.48;99580.91;5004833;28;46471;-80
2021/11/02 14:28:50;;;;;;;;;1.00;1.00;;;;;22.30;61.14;99571.22;5049579;28;45671;-81
2021/11/02 14:31:36;;;;;;;;;1.00;1.00;;;;;22.75;60.77;99583.00;5042566;28;45450;-80
2021/11/02 14:34:01;;;;;;;;;3.00;1.00;;;;;22.79;61.09;99561.84;5042581;28;45488;-80
2021/11/02 14:36:40;;;;;;;;;3.00;1.00;;;;;23.12;60.48;99576.06;5024748;28;47504;-80
2021/11/02 14:39:11;;;;;;;;;2.75;1.00;;;;;22.92;59.79;99571.78;5042627;28;45266;-80
2021/11/02 14:41:44;;;;;;;;;3.00;2.00;;;;;22.81;61.29;99583.19;5042686;28;45421;-80
2021/11/02 14:44:15;;;;;;;;;2.75;1.50;;;;;22.74;62.11;99585.88;5042549;28;45444;-81
2021/11/02 14:47:02;;;;;;;;;2.00;1.00;;;;;22.56;63.26;99583.00;5042511;28;45265;-81
2021/11/02 14:49:28;;;;;;;;;1.00;1.00;;;;;22.30;63.51;99579.31;5033955;28;45765;-80
2021/11/02 14:52:00;;;;;;;;;0.25;0.00;;;;;22.30;64.35;99575.78;5030246;28;45485;-80
2021/11/02 14:54:30;;;;;;;;;2.25;1.00;;;;;22.10;64.92;99580.34;5031296;28;45475;-80
2021/11/02 14:56:57;;;;;;;;;1.00;1.00;;;;;22.16;65.18;99590.25;5040953;28;47211;-80
2021/11/02 14:59:23;;;;;;;;;1.25;0.00;;;;;22.12;65.11;99579.09;5025202;28;45870;-80
2021/11/02 15:01:57;;;;;;;;;6.00;2.00;;;;;22.25;64.36;99581.78;5042479;28;45383;-80
2021/11/02 15:04:23;;;;;;;;;2.00;2.00;;;;;22.15;64.50;99572.47;5024316;28;45741;-80
2021/11/02 15:06:57;;;;;;;;;1.25;1.00;;;;;22.15;64.89;99575.97;5042141;28;45767;-80
2021/11/02 15:09:26;;;;;;;;;2.50;1.75;;;;;21.99;64.04;99576.38;5042190;28;45351;-80
2021/11/02 15:11:53;;;;;;;;;1.00;1.00;;;;;21.78;63.97;99571.16;5041923;28;45354;-80
2021/11/02 15:14:24;;;;;;;;;1.00;0.75;;;;;21.69;63.55;99577.75;5049431;28;45459;-80
2021/11/02 15:16:53;;;;;;;;;5.00;2.00;;;;;21.52;64.00;99578.13;5042031;28;46060;-80
2021/11/02 15:19:22;;;;;;;;;2.75;2.75;;;;;21.45;65.24;99579.97;5042060;28;45216;-80
2021/11/02 15:21:57;;;;;;;;;2.00;2.00;;;;;21.45;64.87;99576.47;5042097;28;45305;-80
2021/11/02 15:24:32;;;;;;;;;2.25;2.25;;;;;21.40;65.61;99569.00;5024105;28;46454;-80
2021/11/02 15:27:00;;;;;;;;;1.00;1.00;;;;;21.34;66.05;99577.03;5025272;28;48102;-80
2021/11/02 15:29:29;;;;;;;;;2.00;1.00;;;;;21.30;66.68;99581.16;5046151;28;45478;-80
2021/11/02 15:32:00;;;;;;;;;2.00;1.25;;;;;21.26;67.10;99569.97;5062345;28;45352;-80
2021/11/02 15:34:45;;;;;;;;;3.75;1.25;;;;;21.15;67.16;99565.16;5064445;28;45579;-80
2021/11/02 15:37:16;;;;;;;;;3.00;1.00;;;;;21.03;68.08;99567.56;5064575;28;45308;-80
2021/11/02 15:39:43;;;;;;;;;1.25;1.25;;;;;20.84;68.58;99571.84;5062044;28;45411;-80
2021/11/02 15:42:25;;;;;;;;;2.00;1.00;;;;;20.83;68.76;99561.31;5061669;28;45234;-80
2021/11/02 15:44:56;;;;;;;;;1.75;1.50;;;;;20.75;69.00;99572.19;5061866;28;45461;-80
2021/11/02 15:47:26;;;;;;;;;1.25;0.25;;;;;20.64;69.12;99570.06;5061482;28;45392;-80
2021/11/02 15:50:00;;;;;;;;;3.00;1.50;;;;;20.61;69.56;99565.91;5071509;28;45400;-80
2021/11/02 15:52:33;;;;;;;;;1.00;1.00;;;;;20.51;70.42;99554.69;5051560;28;45425;-80
2021/11/02 15:55:07;;;;;;;;;2.00;1.50;;;;;20.55;70.93;99558.66;5023533;28;45937;-80
2021/11/02 15:57:41;;;;;;;;;1.50;0.75;;;;;20.52;71.70;99559.03;5035421;28;47674;-80
2021/11/02 16:00:09;;;;;;;;;1.00;1.00;;;;;20.53;71.18;99560.69;5061680;28;45284;-80
2021/11/02 16:02:36;;;;;;;;;1.25;1.00;;;;;20.47;72.29;99553.44;5061499;28;45406;-80
2021/11/02 16:05:14;;;;;;;;;3.00;2.00;;;;;20.61;72.70;99549.81;5043679;28;45327;-80
2021/11/02 16:07:39;;;;;;;;;1.00;1.00;;;;;20.51;73.42;99558.22;5043086;28;48388;-80
2021/11/02 16:10:07;;;;;;;;;2.50;1.75;;;;;20.41;73.68;99556.91;5043339;28;45277;-80
2021/11/02 16:12:40;;;;;;;;;4.75;1.50;;;;;20.42;74.70;99548.66;5063473;28;45632;-80
2021/11/02 16:15:06;;;;;;;;;3.00;2.00;;;;;20.29;74.33;99545.03;5064969;28;45202;-80
2021/11/02 16:17:38;;;;;;;;;1.00;1.00;;;;;20.28;74.69;99538.00;5059852;28;45358;-80
2021/11/02 16:20:05;;;;;;;;;2.00;2.00;;;;;20.20;75.27;99544.34;5059700;28;45670;-80
2021/11/02 16:22:30;;;;;;;;;1.00;1.00;;;;;20.14;74.91;99550.47;5042592;28;45321;-80
2021/11/02 16:25:08;;;;;;;;;5.00;2.00;;;;;20.26;75.15;99540.06;5061068;28;45359;-80
2021/11/02 16:27:34;;;;;;;;;3.00;1.50;;;;;20.23;75.86;99551.16;5062670;28;46221;-80
2021/11/02 16:30:13;;;;;;;;;4.00;4.00;;;;;20.26;75.87;99543.56;5060894;28;45337;-80
2021/11/02 16:32:41;;;;;;;;;3.50;2.75;;;;;20.24;75.78;99542.94;5060906;28;45457;-80
2021/11/02 16:35:07;;;;;;;;;6.25;3.00;;;;;20.25;76.29;99538.41;5061151;28;45305;-80
2021/11/02 16:37:38;;;;;;;;;5.00;3.25;;;;;20.44;76.17;99545.78;5060718;28;45350;-80
2021/11/02 16:40:16;;;;;;;;;5.25;2.50;;;;;20.46;75.91;99541.06;5060880;28;45335;-80
2021/11/02 16:42:49;;;;;;;;;2.25;2.25;;;;;20.32;76.32;99547.31;5042813;28;45419;-80
2021/11/02 16:45:14;;;;;;;;;2.75;1.50;;;;;20.25;76.39;99530.34;5060936;28;45348;-80
2021/11/02 16:47:40;;;;;;;;;4.00;2.00;;;;;20.24;76.80;99528.69;5060762;28;46481;-80
2021/11/02 16:50:07;;;;;;;;;3.00;3.00;;;;;20.24;77.02;99532.22;5044432;28;45692;-80
2021/11/02 16:52:33;;;;;;;;;4.50;3.00;;;;;20.20;77.20;99532.81;5041407;28;45315;-81
2021/11/02 16:55:15;;;;;;;;;2.00;2.00;;;;;20.23;77.63;99532.41;5045702;28;45671;-80
2021/11/02 16:57:41;;;;;;;;;6.50;2.00;;;;;19.99;78.33;99521.09;5070187;28;45431;-80